createdAt,value
2017-07-24T00:00:06.283Z,41.2
2017-07-24T00:01:06.979Z,41.3
2017-07-24T00:02:07.753Z,41.2
2017-07-24T00:03:08.455Z,42.1
2017-07-24T00:04:09.141Z,41.3
2017-07-24T00:05:09.839Z,41.3
2017-07-24T00:06:10.927Z,42.0
2017-07-24T00:07:11.639Z,41.4
2017-07-24T00:08:12.306Z,41.5
2017-07-24T00:09:13.004Z,41.7
2017-07-24T00:10:13.716Z,42.2
2017-07-24T00:11:14.435Z,42.3
2017-07-24T00:12:15.410Z,42.0
2017-07-24T00:13:16.123Z,42.2
2017-07-24T00:14:16.827Z,42.0
2017-07-24T00:15:17.481Z,41.9
2017-07-24T00:16:18.176Z,42.3
2017-07-24T00:17:18.878Z,42.2
2017-07-24T00:18:19.919Z,42.2
2017-07-24T00:19:20.745Z,42.2
2017-07-24T00:20:21.473Z,42.6
2017-07-24T00:21:22.185Z,42.4
2017-07-24T00:22:22.860Z,42.2
2017-07-24T00:23:23.635Z,42.7
2017-07-24T00:24:24.353Z,42.8
2017-07-24T00:25:25.372Z,42.8
2017-07-24T00:26:26.370Z,42.5
2017-07-24T00:27:27.068Z,42.7
2017-07-24T00:28:27.763Z,42.7
2017-07-24T00:29:28.458Z,42.3
2017-07-24T00:30:29.134Z,42.5
2017-07-24T00:31:30.130Z,42.5
2017-07-24T00:32:30.809Z,42.5
2017-07-24T00:33:31.494Z,42.4
2017-07-24T00:34:32.177Z,42.6
2017-07-24T00:35:32.857Z,42.5
2017-07-24T00:36:33.549Z,42.4
2017-07-24T00:37:34.520Z,42.6
2017-07-24T00:38:35.211Z,42.5
2017-07-24T00:39:35.896Z,42.6
2017-07-24T00:40:36.573Z,42.5
2017-07-24T00:41:37.280Z,42.5
2017-07-24T00:42:37.946Z,42.6
2017-07-24T00:43:38.899Z,42.8
2017-07-24T00:44:39.654Z,42.3
2017-07-24T00:45:40.342Z,43.0
2017-07-24T00:46:41.138Z,42.0
2017-07-24T00:47:41.824Z,42.2
2017-07-24T00:48:42.510Z,42.1
2017-07-24T00:49:43.458Z,42.6
2017-07-24T00:50:44.121Z,42.9
2017-07-24T00:51:45.010Z,42.2
2017-07-24T00:52:45.686Z,42.0
2017-07-24T00:53:46.393Z,42.1
2017-07-24T00:54:47.075Z,42.0
2017-07-24T00:55:47.750Z,42.2
2017-07-24T00:56:48.762Z,42.9
2017-07-24T00:57:49.494Z,42.3
2017-07-24T00:58:50.243Z,42.0
2017-07-24T00:59:50.931Z,42.1
2017-07-24T01:00:51.626Z,42.3
2017-07-24T01:01:52.302Z,41.9
2017-07-24T01:02:53.243Z,42.3
2017-07-24T01:03:54.003Z,41.8
2017-07-24T01:04:54.990Z,42.1
2017-07-24T01:05:55.732Z,42.6
2017-07-24T01:06:56.600Z,42.4
2017-07-24T01:07:57.299Z,42.0
2017-07-24T01:08:58.303Z,42.0
2017-07-24T01:09:59.050Z,42.9
2017-07-24T01:10:59.703Z,42.0
2017-07-24T01:12:00.452Z,42.9
2017-07-24T01:13:01.231Z,42.2
2017-07-24T01:14:01.887Z,42.5
2017-07-24T01:15:02.845Z,42.6
2017-07-24T01:16:03.868Z,42.4
2017-07-24T01:17:04.620Z,42.5
2017-07-24T01:18:05.305Z,42.4
2017-07-24T01:19:06.007Z,42.4
2017-07-24T01:20:06.699Z,42.5
2017-07-24T01:21:07.622Z,42.5
2017-07-24T01:22:08.354Z,42.6
2017-07-24T01:23:09.049Z,42.9
2017-07-24T01:24:09.738Z,43.3
2017-07-24T01:25:10.423Z,42.9
2017-07-24T01:26:11.186Z,43.1
2017-07-24T01:27:12.178Z,43.4
2017-07-24T01:28:12.948Z,43.3
2017-07-24T01:29:13.707Z,43.0
2017-07-24T01:30:14.462Z,43.6
2017-07-24T01:31:15.145Z,43.2
2017-07-24T01:32:15.830Z,43.6
2017-07-24T01:33:17.081Z,43.6
2017-07-24T01:34:17.759Z,44.0
2017-07-24T01:35:18.462Z,43.9
2017-07-24T01:36:19.137Z,43.8
2017-07-24T01:37:19.870Z,44.5
2017-07-24T01:38:20.839Z,43.8
2017-07-24T01:39:21.508Z,44.5
2017-07-24T01:40:22.439Z,44.4
2017-07-24T01:41:23.119Z,44.5
2017-07-24T01:42:23.826Z,44.4
2017-07-24T01:43:24.824Z,44.7
2017-07-24T01:44:25.487Z,44.6
2017-07-24T01:45:26.183Z,44.5
2017-07-24T01:46:27.124Z,44.6
2017-07-24T01:47:27.814Z,44.3
2017-07-24T01:48:28.547Z,44.6
2017-07-24T01:49:29.281Z,44.9
2017-07-24T01:50:29.976Z,45.0
2017-07-24T01:51:30.645Z,45.1
2017-07-24T01:52:31.654Z,45.2
2017-07-24T01:53:32.328Z,44.9
2017-07-24T01:54:33.095Z,45.1
2017-07-24T01:55:33.780Z,45.1
2017-07-24T01:56:34.481Z,45.2
2017-07-24T01:57:35.302Z,45.1
2017-07-24T01:58:36.304Z,45.1
2017-07-24T01:59:37.037Z,45.3
2017-07-24T02:00:37.800Z,45.1
2017-07-24T02:01:38.491Z,45.0
2017-07-24T02:02:39.151Z,44.7
2017-07-24T02:03:39.849Z,45.3
2017-07-24T02:04:40.800Z,45.7
2017-07-24T02:05:41.548Z,45.4
2017-07-24T02:06:42.256Z,45.3
2017-07-24T02:07:42.984Z,45.3
2017-07-24T02:08:43.663Z,45.4
2017-07-24T02:09:44.352Z,45.2
2017-07-24T02:10:45.051Z,45.9
2017-07-24T02:11:46.132Z,45.4
2017-07-24T02:12:47.006Z,45.1
2017-07-24T02:13:47.687Z,45.3
2017-07-24T02:14:48.400Z,45.2
2017-07-24T02:15:49.096Z,45.2
2017-07-24T02:16:49.876Z,45.4
2017-07-24T02:17:51.076Z,45.4
2017-07-24T02:18:51.857Z,44.9
2017-07-24T02:19:52.533Z,45.2
2017-07-24T02:20:53.263Z,45.0
2017-07-24T02:21:53.948Z,45.1
2017-07-24T02:22:54.626Z,45.0
2017-07-24T02:23:55.617Z,45.1
2017-07-24T02:24:56.289Z,45.3
2017-07-24T02:25:56.985Z,45.2
2017-07-24T02:26:57.720Z,44.7
2017-07-24T02:27:58.406Z,45.0
2017-07-24T02:28:59.127Z,45.2
2017-07-24T02:30:00.078Z,45.3
2017-07-24T02:31:00.788Z,45.1
2017-07-24T02:32:01.867Z,44.9
2017-07-24T02:33:02.726Z,45.0
2017-07-24T02:34:03.414Z,45.0
2017-07-24T02:35:04.100Z,45.2
2017-07-24T02:36:05.179Z,44.8
2017-07-24T02:37:05.842Z,45.1
2017-07-24T02:38:06.577Z,44.8
2017-07-24T02:39:07.267Z,45.1
2017-07-24T02:40:07.959Z,45.0
2017-07-24T02:41:08.727Z,44.9
2017-07-24T02:42:09.808Z,44.6
2017-07-24T02:43:10.471Z,44.6
2017-07-24T02:44:11.178Z,45.0
2017-07-24T02:45:11.845Z,44.7
2017-07-24T02:46:12.538Z,44.6
2017-07-24T02:47:13.245Z,44.4
2017-07-24T02:48:14.290Z,45.0
2017-07-24T02:49:14.966Z,44.8
2017-07-24T02:50:15.668Z,44.9
2017-07-24T02:51:16.361Z,44.8
2017-07-24T02:52:17.116Z,44.9
2017-07-24T02:53:17.901Z,44.8
2017-07-24T02:54:18.607Z,44.9
2017-07-24T02:55:19.656Z,44.9
2017-07-24T02:56:20.331Z,44.4
2017-07-24T02:57:21.012Z,44.5
2017-07-24T02:58:21.702Z,44.6
2017-07-24T02:59:22.406Z,44.7
2017-07-24T03:00:23.132Z,44.6
2017-07-24T03:01:24.175Z,44.6
2017-07-24T03:02:24.890Z,45.1
2017-07-24T03:03:25.648Z,45.3
2017-07-24T03:04:26.342Z,45.4
2017-07-24T03:05:27.097Z,45.1
2017-07-24T03:06:27.846Z,45.1
2017-07-24T03:07:28.876Z,45.4
2017-07-24T03:08:29.627Z,45.3
2017-07-24T03:09:30.320Z,45.3
2017-07-24T03:10:31.040Z,45.6
2017-07-24T03:11:31.815Z,45.3
2017-07-24T03:12:32.601Z,45.5
2017-07-24T03:13:33.562Z,45.6
2017-07-24T03:14:34.277Z,45.4
2017-07-24T03:15:35.108Z,45.3
2017-07-24T03:16:35.766Z,45.2
2017-07-24T03:17:36.444Z,45.6
2017-07-24T03:18:37.152Z,45.3
2017-07-24T03:19:38.088Z,45.1
2017-07-24T03:20:38.769Z,45.1
2017-07-24T03:21:39.469Z,45.2
2017-07-24T03:22:40.260Z,45.0
2017-07-24T03:23:40.935Z,45.1
2017-07-24T03:24:41.604Z,45.4
2017-07-24T03:25:42.318Z,45.2
2017-07-24T03:26:43.294Z,45.0
2017-07-24T03:27:43.982Z,45.5
2017-07-24T03:28:44.681Z,45.2
2017-07-24T03:29:45.360Z,45.1
2017-07-24T03:30:46.078Z,45.0
2017-07-24T03:31:46.768Z,45.5
2017-07-24T03:32:47.747Z,45.3
2017-07-24T03:33:48.430Z,45.7
2017-07-24T03:34:49.122Z,45.1
2017-07-24T03:35:49.828Z,45.3
2017-07-24T03:36:50.621Z,45.2
2017-07-24T03:37:51.322Z,45.5
2017-07-24T03:38:52.263Z,45.5
2017-07-24T03:39:52.958Z,46.2
2017-07-24T03:40:53.646Z,45.1
2017-07-24T03:41:54.328Z,45.4
2017-07-24T03:42:55.059Z,45.7
2017-07-24T03:43:55.760Z,45.2
2017-07-24T03:44:56.680Z,45.2
2017-07-24T03:45:57.376Z,45.4
2017-07-24T03:46:58.106Z,45.2
2017-07-24T03:47:59.156Z,45.4
2017-07-24T03:48:59.903Z,45.7
2017-07-24T03:50:00.592Z,45.2
2017-07-24T03:51:01.582Z,45.6
2017-07-24T03:52:02.380Z,45.3
2017-07-24T03:53:03.039Z,45.1
2017-07-24T03:54:03.792Z,45.4
2017-07-24T03:55:04.464Z,45.6
2017-07-24T03:56:05.179Z,45.6
2017-07-24T03:57:06.110Z,45.4
2017-07-24T03:58:06.843Z,45.3
2017-07-24T03:59:07.541Z,45.3
2017-07-24T04:00:08.591Z,45.2
2017-07-24T04:01:09.880Z,45.3
2017-07-24T04:02:10.590Z,45.5
2017-07-24T04:03:11.675Z,45.4
2017-07-24T04:04:12.383Z,45.3
2017-07-24T04:05:13.067Z,45.1
2017-07-24T04:06:13.762Z,45.2
2017-07-24T04:07:14.468Z,45.4
2017-07-24T04:08:15.199Z,45.4
2017-07-24T04:09:15.899Z,45.5
2017-07-24T04:10:16.889Z,45.3
2017-07-24T04:11:17.593Z,45.6
2017-07-24T04:12:18.340Z,45.4
2017-07-24T04:13:19.028Z,45.2
2017-07-24T04:14:19.767Z,45.2
2017-07-24T04:15:20.444Z,45.5
2017-07-24T04:16:21.431Z,45.2
2017-07-24T04:17:22.231Z,45.2
2017-07-24T04:18:23.004Z,45.2
2017-07-24T04:19:23.736Z,45.6
2017-07-24T04:20:24.498Z,45.7
2017-07-24T04:21:25.197Z,45.4
2017-07-24T04:22:26.312Z,45.6
2017-07-24T04:23:26.984Z,45.2
2017-07-24T04:24:27.676Z,46.1
2017-07-24T04:25:28.414Z,45.9
2017-07-24T04:26:29.153Z,45.6
2017-07-24T04:27:29.940Z,45.7
2017-07-24T04:28:30.977Z,45.4
2017-07-24T04:29:31.702Z,46.1
2017-07-24T04:30:32.464Z,45.9
2017-07-24T04:31:33.194Z,45.6
2017-07-24T04:32:33.850Z,45.4
2017-07-24T04:33:34.601Z,45.9
2017-07-24T04:34:35.511Z,45.8
2017-07-24T04:35:36.262Z,45.7
2017-07-24T04:36:36.929Z,45.8
2017-07-24T04:37:37.621Z,46.1
2017-07-24T04:38:38.377Z,46.2
2017-07-24T04:39:39.045Z,45.8
2017-07-24T04:40:39.754Z,45.7
2017-07-24T04:41:40.789Z,45.7
2017-07-24T04:42:41.589Z,45.8
2017-07-24T04:43:42.700Z,46.0
2017-07-24T04:44:43.344Z,46.1
2017-07-24T04:45:44.133Z,46.6
2017-07-24T04:46:44.793Z,46.7
2017-07-24T04:47:45.990Z,46.8
2017-07-24T04:48:46.727Z,46.9
2017-07-24T04:49:47.424Z,47.1
2017-07-24T04:50:48.250Z,47.0
2017-07-24T04:51:48.942Z,47.0
2017-07-24T04:52:49.779Z,46.9
2017-07-24T04:53:50.478Z,47.0
2017-07-24T04:54:51.419Z,46.8
2017-07-24T04:55:52.109Z,46.9
2017-07-24T04:56:52.798Z,47.0
2017-07-24T04:57:53.557Z,47.0
2017-07-24T04:58:54.233Z,46.6
2017-07-24T04:59:54.986Z,46.8
2017-07-24T05:00:55.979Z,46.7
2017-07-24T05:01:57.020Z,46.8
2017-07-24T05:02:57.803Z,46.7
2017-07-24T05:03:58.647Z,46.8
2017-07-24T05:04:59.353Z,46.7
2017-07-24T05:06:00.119Z,46.7
2017-07-24T05:07:01.060Z,46.7
2017-07-24T05:08:01.760Z,46.7
2017-07-24T05:09:02.507Z,46.8
2017-07-24T05:10:03.194Z,46.7
2017-07-24T05:11:03.901Z,46.8
2017-07-24T05:12:04.578Z,46.8
2017-07-24T05:13:05.614Z,46.6
2017-07-24T05:14:06.387Z,46.7
2017-07-24T05:15:07.090Z,46.8
2017-07-24T05:16:07.787Z,46.8
2017-07-24T05:17:08.481Z,47.0
2017-07-24T05:19:25.071Z,46.9
2017-07-24T05:20:25.803Z,47.1
2017-07-24T05:21:26.521Z,46.9
2017-07-24T05:22:27.263Z,46.9
2017-07-24T05:23:27.948Z,46.6
2017-07-24T05:24:28.655Z,46.7
2017-07-24T05:25:29.599Z,46.8
2017-07-24T05:26:30.339Z,46.7
2017-07-24T05:27:31.161Z,46.7
2017-07-24T05:28:32.568Z,46.7
2017-07-24T05:29:33.232Z,46.8
2017-07-24T05:30:33.986Z,46.7
2017-07-24T05:31:34.687Z,46.5
2017-07-24T05:32:35.958Z,46.5
2017-07-24T05:33:36.945Z,46.7
2017-07-24T05:34:37.649Z,46.5
2017-07-24T05:35:38.342Z,46.8
2017-07-24T05:36:39.089Z,46.6
2017-07-24T05:37:39.786Z,46.7
2017-07-24T05:38:40.762Z,46.6
2017-07-24T05:39:41.545Z,46.7
2017-07-24T05:40:42.241Z,46.7
2017-07-24T05:41:42.979Z,46.8
2017-07-24T05:42:43.720Z,46.7
2017-07-24T05:43:44.465Z,46.8
2017-07-24T05:44:45.163Z,46.7
2017-07-24T05:45:46.122Z,46.7
2017-07-24T05:46:46.780Z,46.5
2017-07-24T05:47:47.480Z,46.6
2017-07-24T05:48:48.299Z,46.8
2017-07-24T05:49:48.999Z,46.7
2017-07-24T05:50:49.666Z,46.7
2017-07-24T05:51:50.666Z,46.7
2017-07-24T05:52:51.361Z,46.7
2017-07-24T05:53:52.049Z,46.8
2017-07-24T05:54:52.756Z,46.7
2017-07-24T05:55:53.500Z,46.7
2017-07-24T05:56:54.239Z,46.7
2017-07-24T05:57:55.184Z,46.5
2017-07-24T05:58:55.937Z,46.9
2017-07-24T05:59:56.616Z,47.3
2017-07-24T06:00:57.315Z,46.7
2017-07-24T06:01:58.010Z,47.4
2017-07-24T06:02:58.708Z,47.6
2017-07-24T06:03:59.746Z,46.9
2017-07-24T06:05:00.487Z,47.1
2017-07-24T06:06:01.246Z,47.3
2017-07-24T06:07:02.047Z,47.2
2017-07-24T06:08:02.857Z,46.8
2017-07-24T06:09:03.539Z,46.8
2017-07-24T06:10:04.526Z,46.9
2017-07-24T06:11:05.231Z,46.8
2017-07-24T06:12:05.914Z,46.9
2017-07-24T06:13:06.774Z,46.9
2017-07-24T06:14:07.520Z,46.9
2017-07-24T06:15:08.258Z,46.8
2017-07-24T06:16:08.940Z,46.7
2017-07-24T06:17:09.892Z,46.7
2017-07-24T06:18:10.613Z,47.1
2017-07-24T06:19:11.452Z,47.1
2017-07-24T06:20:12.110Z,47.2
2017-07-24T06:21:12.801Z,47.2
2017-07-24T06:22:13.493Z,46.9
2017-07-24T06:23:14.482Z,47.1
2017-07-24T06:24:15.227Z,47.1
2017-07-24T06:25:15.996Z,47.0
2017-07-24T06:26:16.738Z,47.0
2017-07-24T06:27:17.425Z,46.7
2017-07-24T06:28:18.239Z,46.7
2017-07-24T06:29:19.272Z,46.7
2017-07-24T06:30:19.959Z,46.6
2017-07-24T06:31:20.722Z,46.6
2017-07-24T06:32:21.490Z,46.5
2017-07-24T06:33:22.379Z,46.4
2017-07-24T06:34:23.521Z,46.4
2017-07-24T06:35:24.548Z,46.5
2017-07-24T06:36:25.583Z,46.4
2017-07-24T06:37:26.265Z,46.1
2017-07-24T06:38:27.036Z,46.3
2017-07-24T06:39:27.790Z,46.3
2017-07-24T06:40:28.472Z,46.5
2017-07-24T06:41:29.496Z,46.1
2017-07-24T06:42:30.160Z,46.5
2017-07-24T06:43:31.052Z,46.3
2017-07-24T06:44:31.769Z,46.2
2017-07-24T06:45:32.582Z,45.9
2017-07-24T06:46:33.261Z,46.1
2017-07-24T06:47:34.514Z,46.0
2017-07-24T06:48:35.655Z,46.0
2017-07-24T06:49:36.315Z,46.1
2017-07-24T06:50:37.014Z,45.9
2017-07-24T06:51:37.730Z,45.6
2017-07-24T06:52:38.512Z,45.7
2017-07-24T06:53:39.512Z,45.6
2017-07-24T06:54:40.233Z,45.7
2017-07-24T06:55:40.921Z,45.8
2017-07-24T06:56:41.600Z,45.7
2017-07-24T06:57:42.376Z,45.9
2017-07-24T06:58:43.086Z,45.7
2017-07-24T06:59:44.254Z,46.0
2017-07-24T07:00:44.976Z,45.8
2017-07-24T07:01:45.634Z,45.7
2017-07-24T07:02:46.359Z,45.6
2017-07-24T07:03:47.168Z,45.6
2017-07-24T07:04:47.893Z,45.5
2017-07-24T07:05:49.170Z,45.6
2017-07-24T07:06:49.908Z,45.6
2017-07-24T07:07:50.655Z,45.3
2017-07-24T07:08:51.413Z,45.3
2017-07-24T07:09:52.191Z,45.4
2017-07-24T07:10:53.018Z,45.5
2017-07-24T07:11:53.832Z,45.4
2017-07-24T07:12:54.801Z,45.2
2017-07-24T07:13:55.683Z,44.7
2017-07-24T07:14:56.360Z,45.1
2017-07-24T07:15:57.814Z,45.1
2017-07-24T07:16:58.758Z,45.3
2017-07-24T07:18:00.035Z,45.2
2017-07-24T07:19:01.031Z,44.8
2017-07-24T07:20:01.867Z,44.8
2017-07-24T07:21:02.947Z,44.9
2017-07-24T07:22:03.632Z,44.9
2017-07-24T07:23:04.422Z,45.0
2017-07-24T07:24:05.080Z,44.8
2017-07-24T07:25:05.911Z,44.7
2017-07-24T07:26:07.013Z,44.8
2017-07-24T07:27:07.708Z,44.7
2017-07-24T07:28:08.732Z,44.9
2017-07-24T07:29:09.478Z,44.7
2017-07-24T07:30:10.227Z,44.7
2017-07-24T07:31:10.911Z,44.5
2017-07-24T07:32:12.145Z,44.5
2017-07-24T07:33:12.822Z,44.2
2017-07-24T07:34:13.533Z,44.3
2017-07-24T07:35:14.403Z,44.2
2017-07-24T07:36:15.099Z,44.3
2017-07-24T07:37:15.798Z,44.3
2017-07-24T07:38:16.550Z,44.4
2017-07-24T07:39:17.547Z,44.5
2017-07-24T07:40:18.245Z,44.5
2017-07-24T07:41:19.002Z,44.3
2017-07-24T07:42:19.704Z,44.5
2017-07-24T07:43:20.411Z,44.6
2017-07-24T07:44:21.170Z,44.6
2017-07-24T07:45:22.160Z,44.4
2017-07-24T07:46:23.445Z,44.3
2017-07-24T07:47:24.326Z,44.6
2017-07-24T07:48:24.997Z,44.0
2017-07-24T07:49:25.780Z,44.0
2017-07-24T07:50:26.573Z,44.0
2017-07-24T07:51:27.620Z,44.1
2017-07-24T07:52:28.304Z,44.1
2017-07-24T07:53:29.011Z,44.1
2017-07-24T07:54:29.882Z,44.0
2017-07-24T07:55:30.664Z,43.9
2017-07-24T07:56:31.337Z,44.1
2017-07-24T07:57:32.294Z,43.9
2017-07-24T07:58:33.011Z,43.9
2017-07-24T07:59:33.941Z,43.9
2017-07-24T08:00:34.625Z,43.8
2017-07-24T08:01:35.554Z,44.0
2017-07-24T08:02:36.245Z,43.8
2017-07-24T08:03:37.209Z,44.3
2017-07-24T08:04:38.020Z,43.7
2017-07-24T08:05:38.678Z,44.1
2017-07-24T08:06:39.392Z,43.8
2017-07-24T08:07:40.114Z,43.8
2017-07-24T08:08:40.917Z,43.5
2017-07-24T08:09:42.033Z,43.7
2017-07-24T08:10:42.723Z,43.7
2017-07-24T08:11:43.465Z,43.9
2017-07-24T08:12:44.201Z,43.7
2017-07-24T08:13:45.268Z,43.7
2017-07-24T08:14:46.039Z,43.8
2017-07-24T08:15:46.974Z,43.8
2017-07-24T08:16:47.660Z,43.8
2017-07-24T08:17:48.461Z,43.7
2017-07-24T08:18:49.187Z,43.8
2017-07-24T08:19:49.885Z,43.9
2017-07-24T08:20:51.078Z,43.5
2017-07-24T08:21:52.042Z,44.0
2017-07-24T08:22:52.733Z,43.5
2017-07-24T08:23:53.533Z,43.4
2017-07-24T08:24:54.702Z,43.4
2017-07-24T08:25:55.572Z,43.4
2017-07-24T08:26:56.254Z,43.3
2017-07-24T08:27:57.273Z,43.5
2017-07-24T08:28:58.028Z,43.4
2017-07-24T08:29:58.907Z,43.5
2017-07-24T08:30:59.740Z,43.3
2017-07-24T08:32:00.456Z,43.3
2017-07-24T08:33:01.218Z,43.6
2017-07-24T08:34:01.904Z,43.6
2017-07-24T08:35:02.911Z,43.6
2017-07-24T08:36:03.717Z,43.1
2017-07-24T08:37:04.433Z,43.0
2017-07-24T08:38:05.154Z,43.0
2017-07-24T08:39:05.913Z,43.2
2017-07-24T08:40:06.589Z,43.3
2017-07-24T08:41:07.587Z,43.4
2017-07-24T08:42:08.271Z,43.2
2017-07-24T08:43:09.017Z,43.1
2017-07-24T08:44:09.725Z,43.8
2017-07-24T08:45:10.417Z,43.9
2017-07-24T08:46:11.108Z,43.3
2017-07-24T08:47:12.151Z,43.2
2017-07-24T08:48:12.844Z,43.4
2017-07-24T08:49:13.553Z,43.2
2017-07-24T08:50:14.233Z,43.5
2017-07-24T08:51:14.931Z,43.2
2017-07-24T08:52:15.664Z,43.2
2017-07-24T08:53:16.861Z,43.4
2017-07-24T08:54:17.618Z,43.2
2017-07-24T08:55:18.583Z,43.0
2017-07-24T08:56:19.351Z,43.2
2017-07-24T08:57:20.073Z,43.5
2017-07-24T08:58:20.775Z,43.6
2017-07-24T08:59:21.910Z,43.1
2017-07-24T09:00:22.756Z,43.6
2017-07-24T09:01:23.617Z,43.1
2017-07-24T09:02:24.375Z,43.1
2017-07-24T09:03:25.088Z,43.1
2017-07-24T09:04:25.832Z,43.0
2017-07-24T09:05:26.911Z,43.0
2017-07-24T09:06:27.609Z,43.2
2017-07-24T09:07:28.339Z,43.1
2017-07-24T09:08:29.021Z,43.0
2017-07-24T09:09:29.729Z,43.1
2017-07-24T09:10:30.431Z,43.1
2017-07-24T09:11:31.938Z,43.2
2017-07-24T09:12:32.681Z,43.0
2017-07-24T09:13:33.393Z,43.0
2017-07-24T09:14:34.107Z,43.1
2017-07-24T09:15:34.857Z,43.0
2017-07-24T09:16:35.549Z,42.7
2017-07-24T09:17:36.236Z,43.1
2017-07-24T09:18:37.239Z,42.7
2017-07-24T09:19:37.994Z,42.8
2017-07-24T09:20:38.747Z,42.7
2017-07-24T09:21:39.426Z,42.6
2017-07-24T09:22:40.270Z,42.8
2017-07-24T09:23:40.978Z,42.7
2017-07-24T09:24:41.977Z,42.7
2017-07-24T09:25:42.676Z,42.6
2017-07-24T09:26:43.390Z,42.5
2017-07-24T09:27:44.102Z,42.7
2017-07-24T09:28:44.793Z,42.5
2017-07-24T09:29:45.515Z,42.5
2017-07-24T09:30:46.629Z,42.5
2017-07-24T09:31:47.385Z,42.7
2017-07-24T09:32:48.120Z,42.9
2017-07-24T09:33:48.825Z,42.3
2017-07-24T09:34:49.546Z,42.3
2017-07-24T09:35:50.300Z,42.3
2017-07-24T09:36:51.214Z,42.4
2017-07-24T09:37:51.902Z,42.3
2017-07-24T09:38:52.628Z,42.5
2017-07-24T09:39:53.319Z,42.1
2017-07-24T09:40:54.090Z,42.2
2017-07-24T09:41:54.839Z,41.9
2017-07-24T09:42:55.795Z,42.2
2017-07-24T09:43:56.508Z,42.1
2017-07-24T09:44:57.239Z,42.4
2017-07-24T09:45:58.016Z,42.2
2017-07-24T09:46:58.738Z,42.4
2017-07-24T09:47:59.504Z,42.5
2017-07-24T09:49:00.597Z,42.4
2017-07-24T09:50:01.261Z,42.4
2017-07-24T09:51:02.154Z,42.4
2017-07-24T09:52:03.001Z,42.1
2017-07-24T09:53:03.929Z,42.2
2017-07-24T09:54:04.634Z,42.2
2017-07-24T09:55:05.652Z,42.4
2017-07-24T09:56:06.362Z,42.3
2017-07-24T09:57:07.047Z,42.1
2017-07-24T09:58:07.821Z,42.3
2017-07-24T09:59:08.498Z,42.7
2017-07-24T10:00:09.202Z,42.2
2017-07-24T10:01:09.956Z,42.1
2017-07-24T10:02:10.933Z,42.0
2017-07-24T10:03:11.633Z,42.2
2017-07-24T10:04:12.336Z,42.4
2017-07-24T10:05:13.094Z,42.4
2017-07-24T10:06:13.959Z,42.2
2017-07-24T10:07:14.998Z,42.0
2017-07-24T10:08:15.931Z,42.2
2017-07-24T10:09:16.679Z,42.2
2017-07-24T10:10:17.368Z,42.4
2017-07-24T10:11:18.261Z,42.0
2017-07-24T10:12:18.966Z,42.5
2017-07-24T10:13:19.727Z,42.2
2017-07-24T10:14:20.726Z,42.4
2017-07-24T10:15:21.427Z,41.8
2017-07-24T10:16:22.573Z,42.0
2017-07-24T10:17:23.457Z,42.5
2017-07-24T10:18:24.136Z,41.7
2017-07-24T10:19:24.985Z,41.7
2017-07-24T10:20:26.142Z,41.7
2017-07-24T10:21:26.894Z,41.6
2017-07-24T10:22:27.651Z,41.5
2017-07-24T10:23:28.344Z,41.4
2017-07-24T10:24:29.019Z,41.5
2017-07-24T10:25:30.052Z,41.6
2017-07-24T10:26:31.033Z,41.5
2017-07-24T10:27:31.806Z,41.5
2017-07-24T10:28:33.822Z,41.9
2017-07-24T10:29:35.187Z,42.1
2017-07-24T10:30:35.904Z,42.1
2017-07-24T10:31:36.820Z,41.4
2017-07-24T10:32:38.264Z,41.3
2017-07-24T10:33:39.042Z,42.1
2017-07-24T10:34:39.891Z,41.3
2017-07-24T10:35:40.616Z,41.4
2017-07-24T10:36:41.322Z,41.6
2017-07-24T10:37:42.174Z,41.5
2017-07-24T10:38:43.299Z,41.3
2017-07-24T10:40:59.699Z,41.3
2017-07-24T10:42:00.577Z,41.4
2017-07-24T10:43:01.551Z,41.5
2017-07-24T10:44:02.548Z,41.4
2017-07-24T10:45:03.339Z,41.4
2017-07-24T10:46:04.018Z,41.3
2017-07-24T10:47:04.722Z,42.4
2017-07-24T10:48:05.472Z,41.5
2017-07-24T10:49:06.242Z,41.9
2017-07-24T10:50:07.237Z,41.5
2017-07-24T10:51:07.987Z,41.5
2017-07-24T10:52:08.687Z,41.6
2017-07-24T10:53:09.519Z,41.5
2017-07-24T10:54:10.225Z,41.5
2017-07-24T10:55:11.155Z,41.5
2017-07-24T10:56:12.140Z,41.5
2017-07-24T10:57:12.882Z,41.5
2017-07-24T10:58:13.638Z,41.9
2017-07-24T10:59:14.329Z,41.8
2017-07-24T11:00:15.072Z,41.5
2017-07-24T11:01:15.782Z,41.7
2017-07-24T11:02:16.550Z,41.6
2017-07-24T11:03:17.539Z,41.6
2017-07-24T11:04:18.235Z,41.8
2017-07-24T11:05:18.944Z,41.5
2017-07-24T11:06:19.627Z,41.6
2017-07-24T11:07:20.531Z,41.4
2017-07-24T11:08:21.232Z,41.4
2017-07-24T11:09:22.224Z,41.5
2017-07-24T11:10:22.925Z,41.6
2017-07-24T11:11:23.619Z,41.0
2017-07-24T11:12:24.419Z,41.2
2017-07-24T11:13:25.125Z,41.3
2017-07-24T11:14:25.803Z,41.7
2017-07-24T11:15:27.082Z,41.6
2017-07-24T11:16:27.756Z,41.4
2017-07-24T11:17:28.503Z,41.2
2017-07-24T11:18:29.202Z,41.1
2017-07-24T11:19:29.897Z,41.1
2017-07-24T11:20:30.588Z,41.2
2017-07-24T11:21:31.641Z,41.1
2017-07-24T11:22:32.325Z,41.5
2017-07-24T11:23:33.017Z,41.1
2017-07-24T11:24:33.721Z,41.2
2017-07-24T11:25:34.415Z,41.0
2017-07-24T11:26:35.119Z,41.1
2017-07-24T11:27:36.219Z,41.2
2017-07-24T11:28:36.975Z,41.0
2017-07-24T11:29:37.667Z,41.2
2017-07-24T11:30:38.369Z,40.9
2017-07-24T11:31:39.056Z,40.8
2017-07-24T11:32:39.900Z,40.9
2017-07-24T11:33:40.862Z,41.1
2017-07-24T11:34:41.541Z,41.0
2017-07-24T11:35:42.250Z,40.9
2017-07-24T11:36:42.938Z,40.9
2017-07-24T11:37:43.790Z,41.1
2017-07-24T11:38:44.488Z,40.8
2017-07-24T11:39:45.508Z,40.9
2017-07-24T11:40:46.250Z,40.8
2017-07-24T11:41:46.953Z,40.9
2017-07-24T11:42:47.798Z,40.8
2017-07-24T11:43:48.496Z,40.9
2017-07-24T11:44:49.256Z,40.9
2017-07-24T11:45:50.026Z,40.8
2017-07-24T11:46:50.961Z,40.8
2017-07-24T11:47:51.785Z,40.7
2017-07-24T11:48:52.477Z,40.9
2017-07-24T11:49:53.170Z,40.8
2017-07-24T11:50:53.870Z,40.9
2017-07-24T11:51:54.562Z,40.9
2017-07-24T11:52:55.665Z,40.9
2017-07-24T11:53:56.366Z,40.9
2017-07-24T11:54:57.056Z,41.1
2017-07-24T11:55:57.766Z,41.1
2017-07-24T11:56:58.447Z,41.0
2017-07-24T11:57:59.146Z,41.0
2017-07-24T11:59:00.202Z,41.1
2017-07-24T12:00:00.905Z,40.9
2017-07-24T12:01:01.661Z,41.1
2017-07-24T12:02:02.416Z,41.2
2017-07-24T12:03:03.106Z,40.9
2017-07-24T12:04:03.807Z,40.9
2017-07-24T12:05:04.759Z,40.9
2017-07-24T12:06:05.508Z,40.8
2017-07-24T12:07:06.205Z,40.9
2017-07-24T12:08:06.960Z,40.8
2017-07-24T12:09:07.701Z,41.0
2017-07-24T12:10:08.405Z,40.8
2017-07-24T12:11:09.355Z,41.2
2017-07-24T12:12:10.052Z,40.9
2017-07-24T12:13:10.753Z,40.9
2017-07-24T12:14:11.462Z,40.7
2017-07-24T12:15:12.150Z,40.9
2017-07-24T12:16:12.891Z,41.0
2017-07-24T12:17:13.584Z,40.8
2017-07-24T12:18:14.571Z,40.7
2017-07-24T12:19:15.263Z,40.8
2017-07-24T12:20:16.027Z,40.9
2017-07-24T12:21:16.705Z,40.5
2017-07-24T12:22:17.505Z,40.5
2017-07-24T12:23:18.246Z,40.6
2017-07-24T12:24:19.248Z,40.5
2017-07-24T12:25:19.984Z,40.4
2017-07-24T12:26:20.722Z,40.4
2017-07-24T12:27:21.451Z,40.2
2017-07-24T12:28:22.174Z,40.3
2017-07-24T12:29:22.943Z,40.4
2017-07-24T12:30:23.943Z,40.2
2017-07-24T12:31:24.672Z,40.2
2017-07-24T12:32:25.419Z,40.2
2017-07-24T12:33:26.425Z,40.0
2017-07-24T12:34:27.193Z,40.0
2017-07-24T12:35:27.889Z,40.0
2017-07-24T12:36:28.880Z,39.9
2017-07-24T12:37:29.580Z,40.3
2017-07-24T12:38:30.309Z,39.9
2017-07-24T12:39:31.025Z,40.3
2017-07-24T12:40:31.713Z,40.1
2017-07-24T12:41:32.408Z,40.3
2017-07-24T12:42:33.453Z,40.0
2017-07-24T12:43:34.205Z,39.9
2017-07-24T12:44:34.868Z,40.1
2017-07-24T12:45:35.562Z,40.1
2017-07-24T12:46:36.245Z,39.9
2017-07-24T12:47:36.941Z,39.9
2017-07-24T12:48:38.265Z,39.9
2017-07-24T12:49:38.945Z,40.0
2017-07-24T12:50:39.639Z,40.1
2017-07-24T12:51:40.336Z,40.1
2017-07-24T12:52:41.040Z,40.0
2017-07-24T12:53:41.845Z,40.0
2017-07-24T12:54:42.783Z,39.9
2017-07-24T12:55:43.473Z,39.9
2017-07-24T12:56:44.176Z,39.9
2017-07-24T12:57:44.864Z,39.7
2017-07-24T12:58:45.732Z,40.0
2017-07-24T12:59:46.477Z,40.1
2017-07-24T13:00:47.165Z,40.4
2017-07-24T13:01:48.169Z,40.3
2017-07-24T13:02:48.868Z,40.3
2017-07-24T13:03:49.560Z,40.0
2017-07-24T13:04:50.251Z,40.3
2017-07-24T13:05:50.955Z,40.6
2017-07-24T13:06:51.640Z,40.5
2017-07-24T13:07:52.588Z,40.3
2017-07-24T13:08:53.496Z,40.5
2017-07-24T13:09:54.259Z,40.4
2017-07-24T13:10:54.921Z,40.5
2017-07-24T13:11:55.950Z,40.8
2017-07-24T13:12:56.637Z,40.5
2017-07-24T13:13:57.693Z,40.3
2017-07-24T13:14:58.386Z,41.0
2017-07-24T13:15:59.084Z,40.5
2017-07-24T13:16:59.778Z,40.8
2017-07-24T13:18:00.470Z,40.5
2017-07-24T13:19:01.187Z,40.9
2017-07-24T13:20:02.170Z,40.7
2017-07-24T13:21:02.862Z,40.6
2017-07-24T13:22:03.581Z,40.7
2017-07-24T13:23:04.282Z,40.6
2017-07-24T13:24:05.014Z,40.9
2017-07-24T13:25:05.714Z,40.1
2017-07-24T13:26:06.711Z,40.2
2017-07-24T13:27:07.411Z,40.6
2017-07-24T13:28:08.166Z,40.5
2017-07-24T13:29:08.923Z,40.6
2017-07-24T13:30:09.623Z,40.5
2017-07-24T13:31:10.308Z,40.3